createdAt,value
2023-04-25T00:01:25.333Z,79.41
2023-04-25T00:04:31.315Z,79.40
2023-04-25T00:07:34.341Z,79.58
2023-04-25T00:10:38.366Z,79.35
2023-04-25T00:13:42.819Z,79.69
2023-04-25T00:16:45.542Z,79.93
2023-04-25T00:19:48.617Z,78.14
2023-04-25T00:22:52.064Z,78.73
2023-04-25T00:25:56.128Z,78.96
2023-04-25T00:28:58.978Z,78.46
2023-04-25T00:32:01.822Z,78.49
2023-04-25T00:35:04.760Z,79.13
2023-04-25T00:38:07.461Z,79.32
2023-04-25T00:41:11.570Z,79.48
2023-04-25T00:44:14.481Z,79.49
2023-04-25T00:47:17.691Z,79.71
2023-04-25T00:50:20.433Z,79.15
2023-04-25T00:53:23.902Z,78.97
2023-04-25T00:56:28.063Z,79.29
2023-04-25T00:59:31.707Z,79.57
2023-04-25T01:02:38.462Z,79.11
2023-04-25T01:05:42.537Z,79.21
2023-04-25T01:08:45.357Z,79.67
2023-04-25T01:11:49.353Z,79.76
2023-04-25T01:14:55.116Z,80.14
2023-04-25T01:17:59.084Z,80.17
2023-04-25T01:21:09.626Z,79.82
2023-04-25T01:24:13.404Z,80.26
2023-04-25T01:27:16.526Z,80.73
2023-04-25T01:30:19.922Z,81.00
2023-04-25T01:33:23.493Z,80.68
2023-04-25T01:36:28.103Z,80.64
2023-04-25T01:39:34.161Z,80.87
2023-04-25T01:42:39.009Z,81.41
2023-04-25T01:45:42.260Z,81.73
2023-04-25T01:48:45.225Z,81.89
2023-04-25T01:51:49.249Z,81.96
2023-04-25T01:54:52.883Z,82.17
2023-04-25T01:57:55.893Z,82.10
2023-04-25T02:00:59.156Z,82.61
2023-04-25T02:04:02.812Z,82.84
2023-04-25T02:07:06.953Z,83.00
2023-04-25T02:10:10.561Z,82.87
2023-04-25T02:13:13.234Z,83.18
2023-04-25T02:16:15.940Z,83.40
2023-04-25T02:19:18.782Z,83.47
2023-04-25T02:22:22.769Z,82.99
2023-04-25T02:25:25.580Z,82.68
2023-04-25T02:28:31.347Z,82.15
2023-04-25T02:31:34.407Z,82.20
2023-04-25T02:34:37.599Z,82.47
2023-04-25T02:37:42.178Z,82.17
2023-04-25T02:40:45.077Z,81.86
2023-04-25T02:43:47.762Z,82.17
2023-04-25T02:46:50.522Z,81.82
2023-04-25T02:49:53.285Z,82.19
2023-04-25T02:52:57.508Z,82.17
2023-04-25T02:56:00.328Z,82.21
2023-04-25T02:59:03.515Z,82.04
2023-04-25T03:02:06.490Z,82.21
2023-04-25T03:05:09.934Z,82.01
2023-04-25T03:08:13.993Z,81.88
2023-04-25T03:11:16.688Z,82.17
2023-04-25T03:14:19.437Z,82.40
2023-04-25T03:17:25.238Z,82.28
2023-04-25T03:20:28.054Z,82.26
2023-04-25T03:23:32.081Z,82.55
2023-04-25T03:26:34.894Z,82.70
2023-04-25T03:29:37.808Z,82.53
2023-04-25T03:32:40.508Z,82.82
2023-04-25T03:35:43.647Z,82.85
2023-04-25T03:38:49.326Z,82.83
2023-04-25T03:41:52.089Z,83.15
2023-04-25T03:44:54.819Z,83.24
2023-04-25T03:47:57.592Z,82.90
2023-04-25T03:51:00.382Z,82.98
2023-04-25T03:54:05.100Z,83.01
2023-04-25T03:57:07.793Z,83.54
2023-04-25T04:00:11.446Z,83.13
2023-04-25T04:03:14.225Z,83.52
2023-04-25T04:06:17.077Z,83.47
2023-04-25T04:09:21.497Z,83.52
2023-04-25T04:12:24.193Z,84.11
2023-04-25T04:15:26.905Z,84.59
2023-04-25T04:18:30.519Z,84.25
2023-04-25T04:21:34.504Z,84.79
2023-04-25T04:24:38.568Z,85.02
2023-04-25T04:27:41.612Z,85.36
2023-04-25T04:30:46.974Z,85.21
2023-04-25T04:33:50.070Z,85.84
2023-04-25T04:36:52.926Z,86.05
2023-04-25T04:39:57.461Z,86.18
2023-04-25T04:43:00.137Z,85.78
2023-04-25T04:46:04.620Z,85.95
2023-04-25T04:49:07.315Z,85.79
2023-04-25T04:52:10.112Z,85.97
2023-04-25T04:55:14.309Z,86.09
2023-04-25T04:58:19.132Z,85.81
2023-04-25T05:01:22.587Z,85.75
2023-04-25T05:04:25.444Z,85.64
2023-04-25T05:07:28.374Z,85.91
2023-04-25T05:10:32.571Z,85.66
2023-04-25T05:13:35.289Z,85.60
2023-04-25T05:16:37.996Z,86.12
2023-04-25T05:19:41.586Z,86.00
2023-04-25T05:22:44.225Z,86.05
2023-04-25T05:25:48.309Z,85.70
2023-04-25T05:28:51.995Z,85.52
2023-04-25T05:31:55.709Z,85.74
2023-04-25T05:34:58.443Z,85.41
2023-04-25T05:38:01.168Z,85.12
2023-04-25T05:41:05.333Z,84.55
2023-04-25T05:44:08.000Z,84.08
2023-04-25T05:47:10.670Z,83.71
2023-04-25T05:50:13.447Z,83.44
2023-04-25T05:53:16.239Z,83.07
2023-04-25T05:56:20.277Z,82.63
2023-04-25T05:59:22.922Z,82.11
2023-04-25T06:02:26.238Z,80.49
2023-04-25T06:05:30.103Z,80.63
2023-04-25T06:08:33.746Z,80.46
2023-04-25T06:11:37.808Z,80.69
2023-04-25T06:14:40.780Z,80.78
2023-04-25T06:17:43.475Z,79.09
2023-04-25T06:20:46.185Z,77.15
2023-04-25T06:23:49.243Z,76.88
2023-04-25T06:26:54.198Z,76.57
2023-04-25T06:29:56.885Z,74.98
2023-04-25T06:32:59.920Z,76.10
2023-04-25T06:36:02.667Z,74.59
2023-04-25T06:39:05.990Z,75.25
2023-04-25T06:42:09.982Z,74.97
2023-04-25T06:45:12.802Z,73.35
2023-04-25T06:48:15.496Z,72.92
2023-04-25T06:51:18.928Z,74.06
2023-04-25T06:54:21.656Z,73.72
2023-04-25T06:57:25.755Z,72.71
2023-04-25T07:00:29.555Z,68.13
2023-04-25T07:03:32.808Z,67.53
2023-04-25T07:06:39.060Z,66.96
2023-04-25T07:09:41.830Z,67.36
2023-04-25T07:12:46.035Z,65.37
2023-04-25T07:15:51.917Z,64.64
2023-04-25T07:18:54.649Z,65.96
2023-04-25T07:21:57.339Z,65.25
2023-04-25T07:25:00.023Z,64.66
2023-04-25T07:28:04.217Z,63.70
2023-04-25T07:31:07.332Z,63.12
2023-04-25T07:34:10.059Z,64.13
2023-04-25T07:37:12.738Z,64.93
2023-04-25T07:40:16.686Z,63.39
2023-04-25T07:43:21.671Z,63.52
2023-04-25T07:46:24.447Z,62.11
2023-04-25T07:49:27.289Z,59.77
2023-04-25T07:52:29.999Z,59.03
2023-04-25T07:55:32.664Z,60.00
2023-04-25T07:58:36.691Z,59.62
2023-04-25T08:01:41.106Z,60.24
2023-04-25T08:04:43.866Z,60.07
2023-04-25T08:07:46.640Z,59.28
2023-04-25T08:10:49.602Z,58.48
2023-04-25T08:13:54.402Z,57.51
2023-04-25T08:17:00.241Z,57.23
2023-04-25T08:20:07.900Z,56.61
2023-04-25T08:23:13.634Z,55.54
2023-04-25T08:26:16.503Z,54.76
2023-04-25T08:29:20.786Z,54.31
2023-04-25T08:32:23.569Z,52.71
2023-04-25T08:35:26.619Z,53.98
2023-04-25T08:38:29.321Z,53.90
2023-04-25T08:41:32.773Z,53.33
2023-04-25T08:44:37.057Z,52.35
2023-04-25T08:47:40.967Z,52.04
2023-04-25T08:50:51.097Z,52.50
2023-04-25T08:53:57.812Z,50.71
2023-04-25T08:57:05.475Z,51.48
2023-04-25T09:00:11.675Z,52.14
2023-04-25T09:03:15.124Z,52.52
2023-04-25T09:06:19.925Z,51.73
2023-04-25T09:09:22.720Z,50.82
2023-04-25T09:12:25.476Z,50.41
2023-04-25T09:15:29.774Z,47.88
2023-04-25T09:18:34.120Z,46.30
2023-04-25T09:21:37.287Z,47.25
2023-04-25T09:24:43.560Z,47.91
2023-04-25T09:27:53.581Z,47.55
2023-04-25T09:30:59.352Z,46.69
2023-04-25T09:34:03.247Z,46.96
2023-04-25T09:37:06.309Z,47.29
2023-04-25T09:40:11.190Z,47.79
2023-04-25T09:43:21.560Z,47.54
2023-04-25T09:46:26.336Z,46.28
2023-04-25T09:49:29.520Z,47.52
2023-04-25T09:52:32.385Z,47.53
2023-04-25T09:55:36.913Z,46.44
2023-04-25T09:58:41.294Z,47.46
2023-04-25T10:01:45.615Z,47.60
2023-04-25T10:04:53.757Z,45.71
2023-04-25T10:07:57.480Z,46.43
2023-04-25T10:11:02.241Z,46.38
2023-04-25T10:14:05.043Z,45.24
2023-04-25T10:17:12.772Z,44.64
2023-04-25T10:20:17.661Z,43.87
2023-04-25T10:23:20.587Z,44.50
2023-04-25T10:26:23.300Z,44.74
2023-04-25T10:29:27.175Z,43.99
2023-04-25T10:32:32.698Z,44.42
2023-04-25T10:35:38.157Z,44.62
2023-04-25T10:38:41.634Z,44.41
2023-04-25T10:41:49.274Z,44.25
2023-04-25T10:45:04.380Z,43.07
2023-04-25T10:48:27.379Z,42.44
2023-04-25T10:51:43.415Z,43.99
2023-04-25T10:54:57.452Z,45.37
2023-04-25T10:58:00.405Z,46.32
2023-04-25T11:01:03.838Z,47.09
2023-04-25T11:04:08.578Z,47.66
2023-04-25T11:07:21.796Z,48.51
2023-04-25T11:10:27.655Z,49.99
2023-04-25T11:13:31.819Z,50.26
2023-04-25T11:16:34.579Z,50.93
2023-04-25T11:19:38.658Z,50.80
2023-04-25T11:22:42.871Z,50.70
2023-04-25T11:25:46.432Z,49.63
2023-04-25T11:28:51.392Z,49.21
2023-04-25T11:31:54.518Z,47.46
2023-04-25T11:34:59.723Z,47.69
2023-04-25T11:38:03.333Z,46.30
2023-04-25T11:41:06.355Z,45.95
2023-04-25T11:44:09.049Z,45.32
2023-04-25T11:47:11.750Z,45.25
2023-04-25T11:50:16.369Z,44.80
2023-04-25T11:53:19.942Z,44.03
2023-04-25T11:56:22.744Z,43.48
2023-04-25T11:59:28.805Z,43.15
2023-04-25T12:02:32.685Z,42.91
2023-04-25T12:05:38.933Z,43.03
2023-04-25T12:09:01.133Z,43.10
2023-04-25T12:12:04.978Z,43.41
2023-04-25T12:15:12.549Z,43.94
2023-04-25T12:18:15.399Z,43.77
2023-04-25T12:21:19.566Z,44.32
2023-04-25T12:24:26.458Z,44.33
2023-04-25T12:27:29.656Z,43.85
2023-04-25T12:30:32.973Z,45.53
2023-04-25T12:33:36.984Z,44.95
2023-04-25T12:36:41.409Z,46.46
2023-04-25T12:39:44.067Z,46.35
2023-04-25T12:42:47.024Z,45.83
2023-04-25T12:45:51.177Z,44.73
2023-04-25T12:48:53.967Z,44.21
2023-04-25T12:51:58.012Z,43.67
2023-04-25T12:55:00.871Z,43.60
2023-04-25T12:58:04.023Z,42.92
2023-04-25T13:01:07.003Z,43.07
2023-04-25T13:04:09.793Z,42.84
2023-04-25T13:07:13.906Z,42.71
2023-04-25T13:10:16.650Z,43.50
2023-04-25T13:13:19.403Z,44.65
2023-04-25T13:16:22.667Z,45.67
2023-04-25T13:19:26.656Z,45.02
2023-04-25T13:22:30.794Z,45.86
2023-04-25T13:25:33.555Z,45.63
2023-04-25T13:28:36.272Z,45.48
2023-04-25T13:31:38.955Z,45.02
2023-04-25T13:34:41.840Z,44.65
2023-04-25T13:37:46.292Z,44.76
2023-04-25T13:40:49.139Z,44.74
2023-04-25T13:43:52.202Z,44.51
2023-04-25T13:46:55.154Z,44.52
2023-04-25T13:49:57.971Z,43.18
2023-04-25T13:53:01.991Z,43.61
2023-04-25T13:56:05.696Z,43.75
2023-04-25T13:59:08.484Z,43.20
2023-04-25T14:02:11.450Z,42.96
2023-04-25T14:05:14.470Z,42.37
2023-04-25T14:08:18.550Z,41.39
2023-04-25T14:11:21.394Z,40.89
2023-04-25T14:14:24.775Z,41.67
2023-04-25T14:17:27.511Z,40.45
2023-04-25T14:20:30.801Z,41.70
2023-04-25T14:23:34.930Z,42.58
2023-04-25T14:26:37.698Z,43.18
2023-04-25T14:29:40.398Z,43.06
2023-04-25T14:32:43.303Z,43.60
2023-04-25T14:35:46.554Z,44.08
2023-04-25T14:38:50.631Z,43.72
2023-04-25T14:41:53.270Z,43.82
2023-04-25T14:44:56.095Z,43.93
2023-04-25T14:47:58.916Z,43.50
2023-04-25T14:51:02.319Z,42.58
2023-04-25T14:54:06.504Z,42.57
2023-04-25T14:57:09.417Z,40.97
2023-04-25T15:00:16.641Z,41.37
2023-04-25T15:03:19.907Z,41.63
2023-04-25T15:06:22.798Z,42.46
2023-04-25T15:09:26.925Z,41.26
2023-04-25T15:12:29.625Z,41.25
2023-04-25T15:15:32.479Z,40.98
2023-04-25T15:18:35.212Z,41.49
2023-04-25T15:21:38.894Z,41.24
2023-04-25T15:24:43.132Z,41.09
2023-04-25T15:27:46.264Z,40.38
2023-04-25T15:30:49.093Z,40.79
2023-04-25T15:33:52.009Z,40.26
2023-04-25T15:36:54.810Z,39.11
2023-04-25T15:40:08.015Z,39.49
2023-04-25T15:43:15.594Z,39.71
2023-04-25T15:46:18.523Z,39.92
2023-04-25T15:49:21.796Z,38.35
2023-04-25T15:52:24.543Z,39.28
2023-04-25T15:55:29.238Z,39.12
2023-04-25T15:58:31.872Z,38.20
2023-04-25T16:01:36.766Z,38.06
2023-04-25T16:04:39.593Z,38.39
2023-04-25T16:07:43.748Z,37.96
2023-04-25T16:10:48.380Z,38.26
2023-04-25T16:13:51.376Z,38.28
2023-04-25T16:16:54.570Z,39.05
2023-04-25T16:19:59.230Z,38.58
2023-04-25T16:23:02.345Z,39.32
2023-04-25T16:26:07.151Z,40.08
2023-04-25T16:29:10.030Z,41.15
2023-04-25T16:32:13.347Z,41.61
2023-04-25T16:35:16.172Z,41.91
2023-04-25T16:38:19.034Z,42.35
2023-04-25T16:41:23.322Z,42.50
2023-04-25T16:44:27.126Z,42.39
2023-04-25T16:47:30.066Z,42.90
2023-04-25T16:50:33.073Z,42.86
2023-04-25T16:53:36.037Z,42.50
2023-04-25T16:56:40.092Z,42.84
2023-04-25T16:59:42.908Z,42.97
2023-04-25T17:02:45.668Z,43.13
2023-04-25T17:05:52.108Z,42.90
2023-04-25T17:08:55.262Z,43.36
2023-04-25T17:11:59.483Z,43.12
2023-04-25T17:15:02.193Z,42.76
2023-04-25T17:18:05.273Z,42.83
2023-04-25T17:21:08.846Z,42.76
2023-04-25T17:24:12.245Z,43.03
2023-04-25T17:27:16.358Z,42.46
2023-04-25T17:30:19.202Z,42.47
2023-04-25T17:33:26.864Z,41.99
2023-04-25T17:36:29.760Z,42.42
2023-04-25T17:39:32.474Z,41.73
2023-04-25T17:42:36.615Z,42.06
2023-04-25T17:45:39.297Z,41.89
2023-04-25T17:48:42.079Z,41.87
2023-04-25T17:51:44.887Z,42.34
2023-04-25T17:54:49.211Z,42.11
2023-04-25T17:57:53.947Z,42.09
2023-04-25T18:00:57.009Z,41.65
2023-04-25T18:03:59.765Z,42.52
2023-04-25T18:07:02.490Z,42.54
2023-04-25T18:10:06.819Z,42.21
2023-04-25T18:13:10.856Z,42.17
2023-04-25T18:16:13.647Z,42.88
2023-04-25T18:19:21.246Z,42.89
2023-04-25T18:22:24.019Z,43.16
2023-04-25T18:25:26.888Z,43.21
2023-04-25T18:28:31.262Z,43.82
2023-04-25T18:31:35.617Z,44.36
2023-04-25T18:34:41.439Z,44.24
2023-04-25T18:37:44.362Z,44.44
2023-04-25T18:40:56.667Z,44.60
2023-04-25T18:44:06.750Z,44.36
2023-04-25T18:47:10.235Z,43.92
2023-04-25T18:50:13.138Z,44.31
2023-04-25T18:53:15.867Z,42.93
2023-04-25T18:56:21.027Z,43.30
2023-04-25T18:59:25.063Z,43.57
2023-04-25T19:02:27.954Z,44.38
2023-04-25T19:05:32.227Z,44.87
2023-04-25T19:08:34.947Z,45.44
2023-04-25T19:11:37.647Z,45.38
2023-04-25T19:14:41.821Z,45.76
2023-04-25T19:17:44.638Z,46.13
2023-04-25T19:20:47.426Z,46.06
2023-04-25T19:23:50.375Z,45.97
2023-04-25T19:26:53.185Z,45.81
2023-04-25T19:30:07.725Z,46.23
2023-04-25T19:33:10.527Z,46.94
2023-04-25T19:36:13.257Z,47.36
2023-04-25T19:39:15.956Z,48.21
2023-04-25T19:42:19.238Z,49.11
2023-04-25T19:45:23.442Z,49.69
2023-04-25T19:48:26.118Z,50.99
2023-04-25T19:51:29.545Z,51.20
2023-04-25T19:54:32.454Z,51.43
2023-04-25T19:57:37.871Z,52.10
2023-04-25T20:00:42.164Z,52.52
2023-04-25T20:03:45.392Z,53.15
2023-04-25T20:06:48.122Z,53.56
2023-04-25T20:09:51.111Z,54.08
2023-04-25T20:12:54.547Z,55.17
2023-04-25T20:16:01.269Z,55.18
2023-04-25T20:19:05.585Z,55.71
2023-04-25T20:22:08.252Z,55.75
2023-04-25T20:25:13.553Z,56.28
2023-04-25T20:28:16.534Z,56.43
2023-04-25T20:31:21.267Z,56.21
2023-04-25T20:34:25.340Z,56.27
2023-04-25T20:37:28.528Z,56.33
2023-04-25T20:40:31.619Z,56.22
2023-04-25T20:43:34.600Z,56.20
2023-04-25T20:46:38.826Z,56.37
2023-04-25T20:49:41.673Z,56.38
2023-04-25T20:52:44.556Z,56.90
2023-04-25T20:55:47.339Z,57.23
2023-04-25T20:58:50.324Z,57.60
2023-04-25T21:01:55.726Z,57.93
2023-04-25T21:04:59.258Z,58.52
2023-04-25T21:08:02.764Z,59.10
2023-04-25T21:11:05.486Z,59.59
2023-04-25T21:14:08.901Z,59.50
2023-04-25T21:17:13.053Z,59.80
2023-04-25T21:20:17.861Z,60.71
2023-04-25T21:23:20.555Z,61.23
2023-04-25T21:26:23.248Z,61.82
2023-04-25T21:29:26.070Z,62.39
2023-04-25T21:32:30.154Z,62.54
2023-04-25T21:35:32.916Z,62.88
2023-04-25T21:38:35.771Z,63.29
2023-04-25T21:41:38.622Z,63.93
2023-04-25T21:44:41.307Z,64.10
2023-04-25T21:47:46.568Z,64.46
2023-04-25T21:50:49.330Z,64.99
2023-04-25T21:53:52.166Z,65.45
2023-04-25T21:56:54.943Z,65.85
2023-04-25T21:59:57.613Z,65.64
2023-04-25T22:03:02.297Z,65.85
2023-04-25T22:06:05.090Z,65.72
2023-04-25T22:09:09.289Z,66.07
2023-04-25T22:12:14.693Z,66.11
2023-04-25T22:15:19.342Z,66.14
2023-04-25T22:18:23.422Z,66.29
2023-04-25T22:21:26.232Z,66.62
2023-04-25T22:24:30.032Z,66.64
2023-04-25T22:27:32.650Z,66.66
2023-04-25T22:30:37.185Z,67.58
2023-04-25T22:33:41.389Z,67.45
2023-04-25T22:36:44.184Z,68.12
2023-04-25T22:39:46.891Z,68.80
2023-04-25T22:42:49.608Z,69.16
2023-04-25T22:45:52.608Z,68.74
2023-04-25T22:48:56.667Z,69.12
2023-04-25T22:51:59.415Z,69.38
2023-04-25T22:55:02.828Z,69.89
2023-04-25T22:58:07.572Z,69.97
2023-04-25T23:01:11.329Z,70.10
2023-04-25T23:04:16.720Z,70.11
2023-04-25T23:07:19.878Z,70.02
2023-04-25T23:10:22.534Z,70.05
2023-04-25T23:13:25.814Z,70.58
2023-04-25T23:16:28.541Z,70.99
2023-04-25T23:19:32.612Z,70.83
2023-04-25T23:22:36.118Z,70.85
2023-04-25T23:25:40.100Z,71.11
2023-04-25T23:28:42.964Z,71.52
2023-04-25T23:31:45.698Z,71.90
2023-04-25T23:34:50.068Z,71.85
2023-04-25T23:37:52.874Z,71.99
2023-04-25T23:40:55.510Z,72.00
2023-04-25T23:43:58.320Z,72.44
2023-04-25T23:47:01.152Z,72.57
2023-04-25T23:50:06.151Z,72.83
2023-04-25T23:53:09.165Z,73.15
2023-04-25T23:56:11.954Z,73.20
2023-04-25T23:59:14.622Z,73.65
